Time;durP1;ratioP1;P1;durP2;ratioP2;P2;SDS_P1;SDS_P2;PMS_P1;PMS_P2;Temp;Humidity;BMP_temperature;BMP_pressure;BME280_temperature;BME280_humidity;BME280_pressure;Samples;Min_cycle;Max_cycle;Signal;HPM_P1;HPM_P2
2023/04/15 15:29:10;;;;;;;;;;;;;;;8.17;100.00;99197.44;5061993;28;20332;-82
2023/04/15 15:31:35;;;;;;;;;;;;;;;7.88;100.00;99210.97;5033245;28;19974;-83
2023/04/15 15:34:06;;;;;;;;;;;;;;;7.75;100.00;99215.91;5033540;28;19965;-86
2023/04/15 15:36:34;;;;;;;;;;;;;;;7.58;100.00;99219.22;5032876;28;20395;-87
2023/04/15 15:38:59;;;;;;;;;;;;;;;7.47;100.00;99219.66;5059736;27;19929;-84
2023/04/15 15:41:24;;;;;;;;;;;;;;;7.26;100.00;99218.72;5031247;28;19946;-87
2023/04/15 15:43:50;;;;;;;;;;;;;;;7.13;100.00;99220.06;5034552;28;20302;-83
2023/04/15 15:46:22;;;;;;;;;;;;;;;7.09;100.00;99221.97;5030167;28;19963;-87
2023/04/15 15:48:48;;;;;;;;;;;;;;;7.11;100.00;99227.19;5030999;28;19921;-82
2023/04/15 15:51:13;;;;;;;;;;;;;;;7.05;100.00;99244.06;5034984;28;19974;-83
2023/04/15 15:53:39;;;;;;;;;;;;;;;7.13;100.00;99233.25;5034857;28;19928;-84
2023/04/15 15:56:04;;;;;;;;;;;;;;;7.39;100.00;99235.75;5128756;27;19978;-83
2023/04/15 15:58:29;;;;;;;;;;;;;;;7.58;100.00;99242.97;5032946;28;19925;-84
2023/04/15 16:00:58;;;;;;;;;;;;;;;7.74;100.00;99246.69;5033714;28;19986;-84
2023/04/15 16:03:23;;;;;;;;;;;;;;;7.85;100.00;99237.47;5033414;28;19921;-83
2023/04/15 16:05:48;;;;;;;;;;;;;;;7.91;100.00;99247.78;5032148;28;20024;-83
2023/04/15 16:08:14;;;;;;;;;;;;;;;7.96;100.00;99245.81;5035114;28;20012;-83
2023/04/15 16:10:39;;;;;;;;;;;;;;;7.99;100.00;99246.56;5034382;28;20291;-83
2023/04/15 16:13:05;;;;;;;;;;;;;;;8.06;100.00;99260.38;5035779;28;19976;-82
2023/04/15 16:15:30;;;;;;;;;;;;;;;8.14;100.00;99267.97;5036095;28;20321;-84
2023/04/15 16:17:55;;;;;;;;;;;;;;;8.16;100.00;99263.47;5033652;28;19925;-85
2023/04/15 16:20:20;;;;;;;;;;;;;;;8.25;100.00;99276.31;5032322;28;19921;-82
2023/04/15 16:22:46;;;;;;;;;;;;;;;8.24;100.00;99282.50;5035705;28;20432;-82
2023/04/15 16:25:11;;;;;;;;;;;;;;;8.27;100.00;99286.81;5033606;28;19925;-83
2023/04/15 16:27:36;;;;;;;;;;;;;;;8.29;100.00;99288.44;5031934;28;19975;-82
2023/04/15 16:30:02;;;;;;;;;;;;;;;8.30;100.00;99289.31;5033470;28;20386;-84
2023/04/15 16:32:27;;;;;;;;;;;;;;;8.32;100.00;99305.94;5028126;28;20268;-82
2023/04/15 16:34:54;;;;;;;;;;;;;;;8.34;100.00;99298.81;5029647;28;19921;-85
2023/04/15 16:37:20;;;;;;;;;;;;;;;8.36;100.00;99297.84;5029749;28;19940;-81
2023/04/15 16:39:45;;;;;;;;;;;;;;;8.41;100.00;99307.31;5021754;28;19921;-82
2023/04/15 16:42:10;;;;;;;;;;;;;;;8.41;100.00;99304.69;5016740;28;19928;-82
2023/04/15 16:44:36;;;;;;;;;;;;;;;8.44;100.00;99313.41;5018627;28;19953;-82
2023/04/15 16:47:01;;;;;;;;;;;;;;;8.45;100.00;99317.72;5018372;28;19921;-84
2023/04/15 16:49:27;;;;;;;;;;;;;;;8.51;100.00;99314.84;5018897;28;19946;-82
2023/04/15 16:51:52;;;;;;;;;;;;;;;8.54;100.00;99325.28;5017225;28;19921;-82
2023/04/15 16:54:17;;;;;;;;;;;;;;;8.56;100.00;99333.13;5016943;28;20352;-83
2023/04/15 16:56:43;;;;;;;;;;;;;;;8.55;100.00;99328.75;5017910;28;20419;-83
2023/04/15 16:59:08;;;;;;;;;;;;;;;8.58;100.00;99335.72;5017895;28;20008;-84
2023/04/15 17:01:33;;;;;;;;;;;;;;;8.61;100.00;99338.22;5016395;28;19927;-83
2023/04/15 17:03:59;;;;;;;;;;;;;;;8.64;100.00;99338.09;5016889;28;20376;-81
2023/04/15 17:06:25;;;;;;;;;;;;;;;8.65;100.00;99345.13;5014275;28;20040;-84
2023/04/15 17:08:50;;;;;;;;;;;;;;;8.67;100.00;99348.53;5016841;28;20006;-83
2023/04/15 17:11:16;;;;;;;;;;;;;;;8.67;100.00;99343.25;5021403;28;20033;-86
2023/04/15 17:13:41;;;;;;;;;;;;;;;8.69;100.00;99363.38;5018700;28;20303;-84
2023/04/15 17:16:06;;;;;;;;;;;;;;;8.71;100.00;99355.41;5017264;28;19925;-83
2023/04/15 17:18:32;;;;;;;;;;;;;;;8.75;100.00;99367.56;5016312;28;20009;-88
2023/04/15 17:20:57;;;;;;;;;;;;;;;8.73;100.00;99364.97;5049500;28;20394;-85
2023/04/15 17:23:23;;;;;;;;;;;;;;;8.77;100.00;99375.41;5023342;28;19923;-84
2023/04/15 17:25:50;;;;;;;;;;;;;;;8.76;100.00;99371.94;5018942;28;20277;-83
2023/04/15 17:28:15;;;;;;;;;;;;;;;8.84;100.00;99380.38;5015271;28;20012;-84
2023/04/15 17:30:40;;;;;;;;;;;;;;;8.82;100.00;99384.88;5016616;28;20407;-85
2023/04/15 17:33:06;;;;;;;;;;;;;;;8.84;100.00;99380.38;5016507;28;19925;-83
2023/04/15 17:35:31;;;;;;;;;;;;;;;8.86;100.00;99401.47;5052574;28;20335;-83
2023/04/15 17:37:56;;;;;;;;;;;;;;;8.85;100.00;99402.38;5019558;28;19921;-83
2023/04/15 17:40:21;;;;;;;;;;;;;;;8.30;100.00;99408.09;5020518;28;20767;-83
2023/04/15 17:42:47;;;;;;;;;;;;;;;7.86;100.00;99416.78;5016680;28;19967;-84
2023/04/15 17:45:12;;;;;;;;;;;;;;;7.74;100.00;99412.84;5017395;28;20007;-83
2023/04/15 17:47:38;;;;;;;;;;;;;;;7.56;100.00;99427.59;5020078;28;20291;-83
2023/04/15 17:50:03;;;;;;;;;;;;;;;7.50;100.00;99425.16;5013356;28;19961;-85
2023/04/15 17:52:32;;;;;;;;;;;;;;;7.35;100.00;99421.28;5112468;27;19922;-83
2023/04/15 17:54:57;;;;;;;;;;;;;;;7.26;100.00;99421.63;5018004;28;19921;-83
2023/04/15 17:57:30;;;;;;;;;;;;;;;7.13;100.00;99433.47;5024991;28;19921;-91
2023/04/15 17:59:55;;;;;;;;;;;;;;;7.11;100.00;99430.06;5046247;28;19921;-82
2023/04/15 18:02:20;;;;;;;;;;;;;;;6.99;100.00;99448.00;5020369;28;19933;-84
2023/04/15 18:04:46;;;;;;;;;;;;;;;6.89;100.00;99459.72;5017338;28;19925;-81
2023/04/15 18:07:11;;;;;;;;;;;;;;;6.85;100.00;99444.97;5015714;28;19975;-83
2023/04/15 18:09:36;;;;;;;;;;;;;;;6.77;100.00;99452.25;5017349;28;20330;-86
2023/04/15 18:12:03;;;;;;;;;;;;;;;6.79;100.00;99459.19;5017067;28;20360;-82
2023/04/15 18:14:28;;;;;;;;;;;;;;;6.73;100.00;99457.63;5017731;28;19925;-83
2023/04/15 18:16:53;;;;;;;;;;;;;;;6.77;100.00;99468.06;5017122;28;19973;-86
2023/04/15 18:19:21;;;;;;;;;;;;;;;6.67;100.00;99470.09;5014923;28;19965;-83
2023/04/15 18:21:47;;;;;;;;;;;;;;;6.65;100.00;99479.81;5016756;28;19921;-82
2023/04/15 18:24:12;;;;;;;;;;;;;;;6.50;100.00;99487.28;5016295;28;20016;-82
2023/04/15 18:26:38;;;;;;;;;;;;;;;6.54;100.00;99478.41;5019506;28;19925;-81
2023/04/15 18:29:03;;;;;;;;;;;;;;;6.48;100.00;99488.28;5014262;28;19995;-85
2023/04/15 18:31:28;;;;;;;;;;;;;;;6.40;100.00;99490.25;5014152;28;19928;-81
2023/04/15 18:33:53;;;;;;;;;;;;;;;6.44;100.00;99492.75;5017216;28;19926;-81
2023/04/15 18:36:19;;;;;;;;;;;;;;;6.41;100.00;99505.13;5013175;28;19921;-81
2023/04/15 18:38:44;;;;;;;;;;;;;;;6.40;100.00;99508.66;5013848;28;19983;-82
2023/04/15 18:41:10;;;;;;;;;;;;;;;6.58;100.00;99504.63;5014310;28;20012;-82
2023/04/15 18:43:35;;;;;;;;;;;;;;;5.73;100.00;99509.69;5015953;28;19918;-81
2023/04/15 18:46:02;;;;;;;;;;;;;;;5.08;100.00;99511.38;5014630;28;20437;-81
2023/04/15 18:48:28;;;;;;;;;;;;;;;5.05;100.00;99511.44;5014797;28;20363;-84
2023/04/15 18:50:53;;;;;;;;;;;;;;;4.83;100.00;99519.81;5012122;28;19925;-81
2023/04/15 18:53:19;;;;;;;;;;;;;;;4.86;100.00;99524.16;5017128;28;20033;-81
2023/04/15 18:55:44;;;;;;;;;;;;;;;5.60;100.00;99525.81;5013477;28;20021;-81
2023/04/15 18:58:10;;;;;;;;;;;;;;;5.54;100.00;99533.84;5016590;28;20008;-84
2023/04/15 19:00:39;;;;;;;;;;;;;;;5.54;100.00;99541.72;5014509;28;19921;-82
2023/04/15 19:03:04;;;;;;;;;;;;;;;5.54;100.00;99552.25;5015436;28;20417;-82
2023/04/15 19:05:30;;;;;;;;;;;;;;;5.51;100.00;99552.31;5014616;28;19917;-82
2023/04/15 19:07:55;;;;;;;;;;;;;;;5.53;100.00;99563.66;5018328;28;19928;-84
2023/04/15 19:10:20;;;;;;;;;;;;;;;5.43;100.00;99557.75;5016666;28;20328;-83
2023/04/15 19:12:46;;;;;;;;;;;;;;;5.40;100.00;99570.97;5011675;28;19921;-85
2023/04/15 19:15:11;;;;;;;;;;;;;;;5.43;100.00;99577.94;5012670;28;19929;-84
2023/04/15 19:17:36;;;;;;;;;;;;;;;5.43;100.00;99581.41;5010694;28;19926;-83
2023/04/15 19:20:02;;;;;;;;;;;;;;;5.38;100.00;99582.44;5015238;28;19960;-82
2023/04/15 19:22:28;;;;;;;;;;;;;;;5.41;100.00;99583.22;5015161;28;19921;-83
2023/04/15 19:24:53;;;;;;;;;;;;;;;5.46;100.00;99585.75;5015762;28;20008;-81
2023/04/15 19:27:18;;;;;;;;;;;;;;;5.47;100.00;99584.81;5012393;28;20008;-82
2023/04/15 19:29:44;;;;;;;;;;;;;;;5.38;100.00;99582.44;5023236;28;20273;-85
2023/04/15 19:32:09;;;;;;;;;;;;;;;5.38;100.00;99587.69;5012939;28;19925;-81
2023/04/15 19:34:34;;;;;;;;;;;;;;;5.37;100.00;99593.84;5016327;28;19917;-81
2023/04/15 19:37:00;;;;;;;;;;;;;;;5.32;100.00;99593.97;5015373;28;19921;-82
2023/04/15 19:39:25;;;;;;;;;;;;;;;5.30;100.00;99601.03;5014453;28;19956;-81
2023/04/15 19:41:52;;;;;;;;;;;;;;;5.30;100.00;99600.13;5014426;28;19951;-82
2023/04/15 19:44:17;;;;;;;;;;;;;;;5.38;100.00;99598.22;5013962;28;19924;-83
2023/04/15 19:46:43;;;;;;;;;;;;;;;5.40;100.00;99601.66;5013097;28;19917;-81
2023/04/15 19:49:09;;;;;;;;;;;;;;;5.38;100.00;99604.31;5014069;28;19925;-86
2023/04/15 19:51:35;;;;;;;;;;;;;;;5.39;100.00;99610.44;5012707;28;19941;-82
2023/04/15 19:54:00;;;;;;;;;;;;;;;5.34;100.00;99607.06;5016546;28;19929;-82
2023/04/15 19:56:25;;;;;;;;;;;;;;;5.35;100.00;99614.06;5011886;28;19918;-83
2023/04/15 19:58:51;;;;;;;;;;;;;;;5.36;100.00;99613.13;5013495;28;20395;-84
2023/04/15 20:01:23;;;;;;;;;;;;;;;5.34;100.00;99618.41;5014866;28;19982;-89
2023/04/15 20:03:48;;;;;;;;;;;;;;;5.41;100.00;99624.41;5016198;28;19926;-84
2023/04/15 20:06:14;;;;;;;;;;;;;;;5.43;100.00;99623.47;5014377;28;20073;-82
2023/04/15 20:08:41;;;;;;;;;;;;;;;5.40;100.00;99633.19;5016163;28;20372;-86
2023/04/15 20:11:13;;;;;;;;;;;;;;;5.43;100.00;99639.22;5030256;28;19929;-90
2023/04/15 20:13:38;;;;;;;;;;;;;;;5.48;100.00;99640.88;5015989;28;19964;-83
2023/04/15 20:16:06;;;;;;;;;;;;;;;5.40;100.00;99644.56;5019021;28;19973;-81
2023/04/15 20:18:31;;;;;;;;;;;;;;;5.37;100.00;99649.88;5022070;28;19925;-84
2023/04/15 20:21:01;;;;;;;;;;;;;;;6.02;100.00;99642.19;5015896;28;19921;-88
2023/04/15 20:23:27;;;;;;;;;;;;;;;5.81;100.00;99647.94;5015713;28;19925;-84
2023/04/15 20:25:52;;;;;;;;;;;;;;;5.64;100.00;99643.09;5016814;28;19933;-83
2023/04/15 20:28:18;;;;;;;;;;;;;;;5.56;100.00;99641.56;5108674;27;19939;-85
2023/04/15 20:30:43;;;;;;;;;;;;;;;5.55;100.00;99647.72;5014459;28;19932;-84
2023/04/15 20:33:08;;;;;;;;;;;;;;;5.55;100.00;99653.84;5018459;28;20334;-82
2023/04/15 20:35:34;;;;;;;;;;;;;;;5.52;100.00;99658.28;5019240;28;20372;-83
2023/04/15 20:38:01;;;;;;;;;;;;;;;5.52;100.00;99659.19;5013849;28;20016;-84
2023/04/15 20:40:27;;;;;;;;;;;;;;;5.45;100.00;99654.97;5018503;28;19932;-83
2023/04/15 20:42:52;;;;;;;;;;;;;;;5.48;100.00;99664.53;5019825;28;19933;-83
2023/04/15 20:45:17;;;;;;;;;;;;;;;5.40;100.00;99662.09;5109336;27;19921;-83
2023/04/15 20:47:43;;;;;;;;;;;;;;;5.41;100.00;99662.06;5010799;28;19934;-82
2023/04/15 20:50:08;;;;;;;;;;;;;;;5.40;100.00;99660.31;5017954;28;19971;-82
2023/04/15 20:52:34;;;;;;;;;;;;;;;5.43;100.00;99669.91;5110964;27;20410;-83
2023/04/15 20:54:59;;;;;;;;;;;;;;;5.34;100.00;99668.34;5017927;28;19947;-81
2023/04/15 20:57:24;;;;;;;;;;;;;;;5.36;100.00;99676.19;5111208;27;20064;-84
2023/04/15 20:59:50;;;;;;;;;;;;;;;5.30;100.00;99674.59;5014135;28;19921;-82
2023/04/15 21:02:16;;;;;;;;;;;;;;;5.25;100.00;99672.06;5016294;28;20017;-81
2023/04/15 21:04:41;;;;;;;;;;;;;;;5.26;100.00;99680.78;5015391;28;19922;-90
2023/04/15 21:07:08;;;;;;;;;;;;;;;5.24;100.00;99675.56;5032434;28;20829;-81
2023/04/15 21:09:33;;;;;;;;;;;;;;;5.22;100.00;99679.16;5035107;28;20409;-84
2023/04/15 21:11:58;;;;;;;;;;;;;;;5.22;100.00;99676.53;5033055;28;19921;-82
2023/04/15 21:14:24;;;;;;;;;;;;;;;5.19;100.00;99682.72;5020092;28;20589;-85
2023/04/15 21:16:49;;;;;;;;;;;;;;;5.21;100.00;99686.16;5035309;28;19921;-83
2023/04/15 21:19:14;;;;;;;;;;;;;;;5.21;100.00;99691.41;5036652;28;19924;-81
2023/04/15 21:21:40;;;;;;;;;;;;;;;5.13;100.00;99685.47;5018321;28;19921;-82
2023/04/15 21:24:06;;;;;;;;;;;;;;;5.14;100.00;99687.22;5037561;28;19921;-85
2023/04/15 21:26:31;;;;;;;;;;;;;;;5.14;100.00;99695.09;5036161;28;19929;-81
2023/04/15 21:28:57;;;;;;;;;;;;;;;5.14;100.00;99695.09;5020175;28;19925;-83
2023/04/15 21:31:22;;;;;;;;;;;;;;;5.20;100.00;99692.31;5034533;28;19970;-80
2023/04/15 21:33:47;;;;;;;;;;;;;;;5.16;100.00;99698.53;5031964;28;19921;-90
2023/04/15 21:36:12;;;;;;;;;;;;;;;5.14;100.00;99700.34;5033905;28;19925;-83
2023/04/15 21:38:38;;;;;;;;;;;;;;;5.17;100.00;99702.91;5034267;28;20387;-82
2023/04/15 21:41:08;;;;;;;;;;;;;;;5.13;100.00;99706.47;5036805;28;19917;-82
2023/04/15 21:43:33;;;;;;;;;;;;;;;5.08;100.00;99710.97;5013364;28;19925;-81
2023/04/15 21:45:59;;;;;;;;;;;;;;;5.12;100.00;99710.00;5012302;28;20058;-82
2023/04/15 21:48:24;;;;;;;;;;;;;;;5.11;100.00;99716.16;5016440;28;19929;-84
2023/04/15 21:50:49;;;;;;;;;;;;;;;5.07;100.00;99714.47;5018149;28;20367;-83
2023/04/15 21:53:15;;;;;;;;;;;;;;;5.06;100.00;99724.13;5019663;28;19922;-84
2023/04/15 21:55:40;;;;;;;;;;;;;;;5.06;100.00;99723.28;5016608;28;19922;-82
2023/04/15 21:58:05;;;;;;;;;;;;;;;5.01;100.00;99722.50;5015614;28;19922;-84
2023/04/15 22:00:31;;;;;;;;;;;;;;;5.05;100.00;99726.78;5017261;28;20339;-87
2023/04/15 22:02:58;;;;;;;;;;;;;;;5.05;100.00;99726.78;5014032;28;20280;-85
2023/04/15 22:05:24;;;;;;;;;;;;;;;5.07;100.00;99728.50;5029931;28;19921;-86
2023/04/15 22:07:50;;;;;;;;;;;;;;;5.05;100.00;99730.28;5019445;28;19921;-81
2023/04/15 22:10:15;;;;;;;;;;;;;;;5.01;100.00;99740.88;5016355;28;19928;-82
2023/04/15 22:12:41;;;;;;;;;;;;;;;5.00;100.00;99736.53;5031964;28;19971;-80
2023/04/15 22:15:06;;;;;;;;;;;;;;;5.03;100.00;99741.72;5014786;28;19925;-81
2023/04/15 22:20:17;;;;;;;;;;;;;;;5.00;100.00;99740.03;5011669;28;19965;-81
2023/04/15 22:22:43;;;;;;;;;;;;;;;5.04;100.00;99746.06;5018171;28;19964;-82
2023/04/15 22:25:08;;;;;;;;;;;;;;;5.00;100.00;99747.91;5018459;28;19921;-83
2023/04/15 22:27:33;;;;;;;;;;;;;;;5.01;100.00;99747.00;5016286;28;20280;-82
2023/04/15 22:29:59;;;;;;;;;;;;;;;4.97;100.00;99757.59;5011811;28;19975;-84
2023/04/15 22:32:24;;;;;;;;;;;;;;;4.94;100.00;99755.03;5017545;28;19937;-85
2023/04/15 22:35:00;;;;;;;;;;;;;;;;;;;;;
2023/04/15 22:37:29;;;;;;;;;;;;;;;4.93;100.00;99759.44;5018821;28;19917;-84
2023/04/15 22:39:54;;;;;;;;;;;;;;;5.01;100.00;99761.88;5015090;28;19991;-80
2023/04/15 22:42:19;;;;;;;;;;;;;;;4.98;100.00;99759.31;5014471;28;19960;-83
2023/04/15 22:44:45;;;;;;;;;;;;;;;4.96;100.00;99761.97;5016362;28;20249;-85
2023/04/15 22:47:10;;;;;;;;;;;;;;;4.95;100.00;99764.66;5014266;28;19975;-85
2023/04/15 22:49:35;;;;;;;;;;;;;;;4.95;100.00;99767.28;5015936;28;19925;-82
2023/04/15 22:52:01;;;;;;;;;;;;;;;4.93;100.00;99767.31;5016532;28;19929;-82
2023/04/15 22:54:26;;;;;;;;;;;;;;;4.95;100.00;99772.53;5018677;28;19975;-81
2023/04/15 22:56:51;;;;;;;;;;;;;;;4.94;100.00;99770.78;5014029;28;19929;-82
2023/04/15 22:59:17;;;;;;;;;;;;;;;4.97;100.00;99783.88;5013810;28;20360;-82
2023/04/15 23:01:42;;;;;;;;;;;;;;;4.97;100.00;99786.50;5011958;28;19993;-82
2023/04/15 23:04:07;;;;;;;;;;;;;;;4.99;100.00;99775.03;5012772;28;20088;-83
2023/04/15 23:06:33;;;;;;;;;;;;;;;4.96;100.00;99779.50;5011737;28;19984;-83
2023/04/15 23:08:58;;;;;;;;;;;;;;;4.97;100.00;99783.88;5014584;28;19926;-81
2023/04/15 23:11:23;;;;;;;;;;;;;;;4.98;100.00;99786.47;5015507;28;20301;-81
2023/04/15 23:13:49;;;;;;;;;;;;;;;4.98;100.00;99783.84;5017085;28;19921;-83
2023/04/15 23:16:14;;;;;;;;;;;;;;;4.97;100.00;99786.50;5013350;28;19921;-81
2023/04/15 23:18:40;;;;;;;;;;;;;;;5.00;100.00;99792.53;5016948;28;19928;-82
2023/04/15 23:21:05;;;;;;;;;;;;;;;4.95;100.00;99788.28;5019381;28;19918;-85
2023/04/15 23:23:30;;;;;;;;;;;;;;;5.02;100.00;99789.88;5015591;28;20012;-85
2023/04/15 23:25:55;;;;;;;;;;;;;;;5.02;100.00;99784.63;5014627;28;19932;-81
2023/04/15 23:28:21;;;;;;;;;;;;;;;4.97;100.00;99781.25;5009121;28;20297;-83
2023/04/15 23:30:46;;;;;;;;;;;;;;;4.98;100.00;99793.47;5013326;28;19921;-84
2023/04/15 23:33:11;;;;;;;;;;;;;;;5.01;100.00;99785.53;5015646;28;19929;-86
2023/04/15 23:38:14;;;;;;;;;;;;;;;4.95;100.00;99788.28;5082472;22;19936;-83
2023/04/15 23:40:39;;;;;;;;;;;;;;;4.92;100.00;99791.84;5079708;28;20131;-82
2023/04/15 23:43:04;;;;;;;;;;;;;;;4.93;100.00;99800.56;5074991;28;19928;-82
2023/04/15 23:45:30;;;;;;;;;;;;;;;4.93;100.00;99805.81;5077562;28;19971;-82
2023/04/15 23:47:58;;;;;;;;;;;;;;;4.95;100.00;99798.81;5080014;28;19920;-82
2023/04/15 23:50:23;;;;;;;;;;;;;;;5.39;100.00;99790.00;5081425;28;19973;-87
2023/04/15 23:52:49;;;;;;;;;;;;;;;5.15;100.00;99793.13;5080062;28;19920;-86
2023/04/15 23:55:14;;;;;;;;;;;;;;;5.05;100.00;99801.19;5080874;28;19925;-85
2023/04/15 23:57:40;;;;;;;;;;;;;;;5.02;100.00;99798.63;5081425;28;19928;-84
